Wadena, Canada
Current Conditions -  °F | °C
As of 4:00 PM on Sunday 23 Nov 2014 (Local Time) from CYQV Reporting Station
Clear Clear  
Wind Chill: -6°   Ceiling: Unl
Heat Index:   Visibility: 9mi
Dew Point:   Wind: 12mph
Humidity: 79%   Direction: 340°NNW
Pressure: 29.78"   Gusts: NA
Location:  51.95°N, 103.8°W
Report Text: CYQV 232200Z AUTO 34010KT 9SM CLR M13/M16 A2978 RMK SLP127
Loading
Personal Weather Stations






























Interactive Weather Map New forecast layout! Learn more

10-Day Weather Forecast

Advertisements
Track Severe Weather on mobile